Aviation Digital Data Service (ADDS)

Output produced by METARs form (1236 UTC 26 February 2017)
found at http://aviationweather.gov/adds/metars/
 
KROA 261124Z 2612/2712 29007KT P6SM SKC 
     FM261500 29011G20KT P6SM SKC 
     FM262000 28010KT P6SM FEW250 
     FM262300 27005KT P6SM FEW200 
     FM270800 00000KT P6SM BKN100